Time;durP1;ratioP1;P1;durP2;ratioP2;P2;SDS_P1;SDS_P2;PMS_P1;PMS_P2;Temp;Humidity;BMP_temperature;BMP_pressure;BME280_temperature;BME280_humidity;BME280_pressure;Samples;Min_cycle;Max_cycle;Signal;HPM_P1;HPM_P2
2022/05/07 00:01:19;;;;;;;;;;;13.10;99.90;;;;;;5075883;27;40527;-57
2022/05/07 00:03:47;;;;;;;;;;;13.10;99.90;;;;;;5076449;27;37290;-57
2022/05/07 00:06:14;;;;;;;;;;;13.00;99.90;;;;;;5076244;27;36326;-57
2022/05/07 00:08:41;;;;;;;;;;;13.00;99.90;;;;;;5075594;27;37406;-57
2022/05/07 00:11:08;;;;;;;;;;;13.10;99.90;;;;;;5077859;27;38114;-57
2022/05/07 00:13:37;;;;;;;;;;;13.10;99.90;;;;;;5074987;27;37046;-57
2022/05/07 00:18:48;;;;;;;;;;;13.10;99.90;;;;;;5078017;27;37641;-57
2022/05/07 00:21:15;;;;;;;;;;;13.10;99.90;;;;;;5076651;27;37952;-57
2022/05/07 00:23:42;;;;;;;;;;;13.10;99.90;;;;;;5077414;27;37106;-56
2022/05/07 00:26:10;;;;;;;;;;;13.10;99.90;;;;;;5075761;27;36222;-57
2022/05/07 00:28:38;;;;;;;;;;;13.00;99.90;;;;;;5073439;27;37787;-57
2022/05/07 00:31:05;;;;;;;;;;;13.00;99.90;;;;;;5077128;27;37892;-57
2022/05/07 00:33:32;;;;;;;;;;;13.10;99.90;;;;;;5077378;27;37261;-57
2022/05/07 00:36:00;;;;;;;;;;;13.10;99.90;;;;;;5076136;27;37060;-57
2022/05/07 00:38:27;;;;;;;;;;;13.10;99.90;;;;;;5075367;27;37854;-57
2022/05/07 00:40:55;;;;;;;;;;;13.10;99.90;;;;;;5074929;27;37737;-57
2022/05/07 00:43:22;;;;;;;;;;;13.10;99.90;;;;;;5076602;27;36056;-57
2022/05/07 00:45:50;;;;;;;;;;;13.10;99.90;;;;;;5076352;27;36522;-57
2022/05/07 00:48:17;;;;;;;;;;;13.00;99.90;;;;;;5074742;27;39149;-57
2022/05/07 00:53:30;;;;;;;;;;;13.00;99.90;;;;;;5075566;27;37979;-57
2022/05/07 00:55:57;;;;;;;;;;;13.00;99.90;;;;;;5076453;27;37881;-57
2022/05/07 00:58:24;;;;;;;;;;;13.10;99.90;;;;;;5075653;27;36323;-60
2022/05/07 01:00:53;;;;;;;;;;;13.10;99.90;;;;;;5078842;27;38145;-59
2022/05/07 01:03:21;;;;;;;;;;;13.10;99.90;;;;;;5076826;27;38262;-60
2022/05/07 01:05:51;;;;;;;;;;;13.10;99.90;;;;;;5077433;27;36147;-61
2022/05/07 01:08:19;;;;;;;;;;;13.10;99.90;;;;;;5077417;27;37944;-57
2022/05/07 01:10:46;;;;;;;;;;;13.20;99.90;;;;;;5075956;27;37915;-57
2022/05/07 01:13:13;;;;;;;;;;;13.20;99.90;;;;;;5074033;27;38208;-57
2022/05/07 01:15:43;;;;;;;;;;;13.30;99.90;;;;;;5073712;27;36121;-57
2022/05/07 01:18:12;;;;;;;;;;;13.30;99.90;;;;;;5072595;27;38829;-56
2022/05/07 01:20:39;;;;;;;;;;;13.30;99.90;;;;;;5072684;27;39805;-56
2022/05/07 01:23:08;;;;;;;;;;;13.30;99.90;;;;;;5075694;27;37100;-57
2022/05/07 01:25:35;;;;;;;;;;;13.30;99.90;;;;;;5071586;27;37680;-57
2022/05/07 01:28:02;;;;;;;;;;;13.20;99.90;;;;;;5074049;27;39468;-59
2022/05/07 01:30:29;;;;;;;;;;;13.20;99.90;;;;;;5076334;27;37959;-61
2022/05/07 01:32:57;;;;;;;;;;;13.20;99.90;;;;;;5075788;27;39515;-60
2022/05/07 01:35:24;;;;;;;;;;;13.20;99.90;;;;;;5075297;27;39373;-60
2022/05/07 01:37:51;;;;;;;;;;;13.20;99.90;;;;;;5076032;27;38022;-57
2022/05/07 01:40:20;;;;;;;;;;;13.20;99.90;;;;;;5075998;27;37746;-61
2022/05/07 01:42:47;;;;;;;;;;;13.20;99.90;;;;;;5074038;27;38301;-57
2022/05/07 01:45:14;;;;;;;;;;;13.20;99.90;;;;;;5075898;27;36368;-56
2022/05/07 01:50:26;;;;;;;;;;;13.20;99.90;;;;;;5076473;27;39551;-59
2022/05/07 01:52:53;;;;;;;;;;;13.20;99.90;;;;;;5076806;27;37567;-60
2022/05/07 01:55:22;;;;;;;;;;;13.20;99.90;;;;;;5075385;27;36594;-60
2022/05/07 01:57:49;;;;;;;;;;;13.30;99.90;;;;;;5073548;27;38426;-61
2022/05/07 02:00:16;;;;;;;;;;;13.30;99.90;;;;;;5074971;27;40067;-61
2022/05/07 02:02:43;;;;;;;;;;;13.30;99.90;;;;;;5074856;27;38001;-57
2022/05/07 02:05:10;;;;;;;;;;;13.30;99.90;;;;;;5075850;27;36906;-60
2022/05/07 02:07:38;;;;;;;;;;;13.30;99.90;;;;;;5074243;27;37886;-61
2022/05/07 02:10:05;;;;;;;;;;;13.30;99.90;;;;;;5074868;27;38741;-58
2022/05/07 02:12:34;;;;;;;;;;;13.30;99.90;;;;;;5075362;27;40367;-57
2022/05/07 02:15:03;;;;;;;;;;;13.30;99.90;;;;;;5074678;27;31084;-57
2022/05/07 02:17:31;;;;;;;;;;;13.30;99.90;;;;;;5074193;27;37513;-58
2022/05/07 02:19:58;;;;;;;;;;;13.30;99.90;;;;;;5075461;27;37922;-57
2022/05/07 02:22:25;;;;;;;;;;;13.30;99.90;;;;;;5075508;27;38647;-57
2022/05/07 02:24:52;;;;;;;;;;;13.30;99.90;;;;;;5070939;27;36507;-57
2022/05/07 02:27:19;;;;;;;;;;;13.40;99.90;;;;;;5067311;27;39372;-57
2022/05/07 02:29:48;;;;;;;;;;;13.40;99.90;;;;;;5072653;27;36660;-57
2022/05/07 02:32:15;;;;;;;;;;;13.40;99.90;;;;;;5072754;27;38378;-57
2022/05/07 02:34:43;;;;;;;;;;;13.40;99.90;;;;;;5072993;27;37665;-57
2022/05/07 02:37:10;;;;;;;;;;;13.50;99.90;;;;;;5073060;27;38731;-57
2022/05/07 02:39:37;;;;;;;;;;;13.50;99.90;;;;;;5074132;27;38085;-57
2022/05/07 02:44:51;;;;;;;;;;;13.50;99.90;;;;;;5074881;27;37178;-57
2022/05/07 02:47:18;;;;;;;;;;;13.50;99.90;;;;;;5073378;27;36395;-57
2022/05/07 02:49:45;;;;;;;;;;;13.60;99.90;;;;;;5074213;27;39073;-57
2022/05/07 02:52:12;;;;;;;;;;;13.60;99.90;;;;;;5075132;27;36960;-57
2022/05/07 02:54:39;;;;;;;;;;;13.60;99.90;;;;;;5074271;27;36518;-57
2022/05/07 02:57:07;;;;;;;;;;;13.60;99.90;;;;;;5073875;27;37755;-57
2022/05/07 02:59:34;;;;;;;;;;;13.60;99.90;;;;;;5075187;27;38391;-57
2022/05/07 03:02:02;;;;;;;;;;;13.60;99.90;;;;;;5073907;27;37982;-57
2022/05/07 03:04:30;;;;;;;;;;;13.60;99.90;;;;;;5072528;27;38396;-57
2022/05/07 03:06:57;;;;;;;;;;;13.70;99.90;;;;;;5073785;27;39325;-57
2022/05/07 03:09:24;;;;;;;;;;;13.70;99.90;;;;;;5073927;27;37399;-57
2022/05/07 03:11:51;;;;;;;;;;;13.60;99.90;;;;;;5074326;27;38294;-57
2022/05/07 03:14:18;;;;;;;;;;;13.60;99.90;;;;;;5074150;27;36526;-57
2022/05/07 03:16:47;;;;;;;;;;;13.60;99.90;;;;;;5073633;27;37741;-57
2022/05/07 03:19:16;;;;;;;;;;;13.60;99.90;;;;;;5073846;27;38665;-57
2022/05/07 03:21:43;;;;;;;;;;;13.70;99.90;;;;;;5074141;27;37109;-58
2022/05/07 03:24:10;;;;;;;;;;;13.60;99.90;;;;;;5074246;27;36064;-57
2022/05/07 03:26:37;;;;;;;;;;;13.60;99.90;;;;;;5073235;27;38925;-57
2022/05/07 03:29:04;;;;;;;;;;;13.50;99.90;;;;;;5074924;27;37788;-57
2022/05/07 03:31:31;;;;;;;;;;;13.50;99.90;;;;;;5073708;27;37856;-57
2022/05/07 03:33:58;;;;;;;;;;;13.50;99.90;;;;;;5074048;27;36242;-57
2022/05/07 03:36:27;;;;;;;;;;;13.50;99.90;;;;;;5074671;27;38076;-60
2022/05/07 03:38:54;;;;;;;;;;;13.40;99.90;;;;;;5074975;27;38265;-61
2022/05/07 03:41:21;;;;;;;;;;;13.50;99.90;;;;;;5074132;27;37124;-61
2022/05/07 03:43:49;;;;;;;;;;;13.40;99.90;;;;;;5073651;27;38470;-57
2022/05/07 03:46:16;;;;;;;;;;;13.40;99.90;;;;;;5074578;27;37975;-57
2022/05/07 03:48:43;;;;;;;;;;;13.40;99.90;;;;;;5074118;27;37623;-62
2022/05/07 03:51:10;;;;;;;;;;;13.40;99.90;;;;;;5077197;27;37280;-61
2022/05/07 03:53:38;;;;;;;;;;;13.40;99.90;;;;;;5077584;27;35287;-61
2022/05/07 03:56:06;;;;;;;;;;;13.40;99.90;;;;;;5076643;27;37571;-60
2022/05/07 03:58:34;;;;;;;;;;;13.40;99.90;;;;;;5074612;27;38012;-61
2022/05/07 04:01:02;;;;;;;;;;;13.40;99.90;;;;;;5075550;27;38043;-61
2022/05/07 04:03:29;;;;;;;;;;;13.40;99.90;;;;;;5076457;27;37080;-62
2022/05/07 04:05:56;;;;;;;;;;;13.40;99.90;;;;;;5076449;27;36453;-61
2022/05/07 04:08:24;;;;;;;;;;;13.40;99.90;;;;;;5076271;27;38907;-61
2022/05/07 04:10:52;;;;;;;;;;;13.40;99.90;;;;;;5073833;27;37855;-61
2022/05/07 04:13:19;;;;;;;;;;;13.40;99.90;;;;;;5077518;27;36043;-61
2022/05/07 04:15:46;;;;;;;;;;;13.40;99.90;;;;;;5078058;27;38721;-61
2022/05/07 04:18:14;;;;;;;;;;;13.30;99.90;;;;;;5076872;27;38255;-61
2022/05/07 04:20:41;;;;;;;;;;;13.40;99.90;;;;;;5076717;27;37320;-62
2022/05/07 04:23:08;;;;;;;;;;;13.40;99.90;;;;;;5076659;27;38142;-61
2022/05/07 04:25:35;;;;;;;;;;;13.40;99.90;;;;;;5074287;27;39447;-61
2022/05/07 04:28:04;;;;;;;;;;;13.40;99.90;;;;;;5074469;27;37970;-61
2022/05/07 04:30:31;;;;;;;;;;;13.40;99.90;;;;;;5076312;27;37401;-61
2022/05/07 04:32:58;;;;;;;;;;;13.40;99.90;;;;;;5076260;27;37728;-61
2022/05/07 04:35:26;;;;;;;;;;;13.40;99.90;;;;;;5075687;27;38966;-61
2022/05/07 04:37:53;;;;;;;;;;;13.40;99.90;;;;;;5076663;27;38259;-61
2022/05/07 04:40:21;;;;;;;;;;;13.40;99.90;;;;;;5075478;27;36082;-61
2022/05/07 04:42:48;;;;;;;;;;;13.50;99.90;;;;;;5077024;27;37837;-61
2022/05/07 04:45:17;;;;;;;;;;;13.40;99.90;;;;;;5076883;27;37986;-61
2022/05/07 04:47:44;;;;;;;;;;;13.50;99.90;;;;;;5075106;27;38610;-61
2022/05/07 04:50:12;;;;;;;;;;;13.50;99.90;;;;;;5076580;27;37563;-61
2022/05/07 04:52:39;;;;;;;;;;;13.50;99.90;;;;;;5075499;27;36439;-62
2022/05/07 04:55:07;;;;;;;;;;;13.50;99.90;;;;;;5074300;27;37568;-61
2022/05/07 04:57:34;;;;;;;;;;;13.50;99.90;;;;;;5075254;27;37912;-61
2022/05/07 05:00:02;;;;;;;;;;;13.40;99.90;;;;;;5075534;27;39560;-61
2022/05/07 05:02:30;;;;;;;;;;;13.40;99.90;;;;;;5075225;27;37227;-61
2022/05/07 05:04:57;;;;;;;;;;;13.50;99.90;;;;;;5076573;27;38867;-61
2022/05/07 05:07:24;;;;;;;;;;;13.50;99.90;;;;;;5076165;27;36944;-61
2022/05/07 05:09:52;;;;;;;;;;;13.50;99.90;;;;;;5075622;27;38274;-61
2022/05/07 05:12:19;;;;;;;;;;;13.50;99.90;;;;;;5073195;27;35122;-61
2022/05/07 05:15:05;;;;;;;;;;;13.50;99.90;;;;;;5072896;27;37991;-61
2022/05/07 05:17:34;;;;;;;;;;;13.50;99.90;;;;;;5073498;27;37886;-57
2022/05/07 05:20:02;;;;;;;;;;;13.50;99.90;;;;;;5074874;27;36615;-57
2022/05/07 05:22:29;;;;;;;;;;;13.50;99.90;;;;;;5073893;27;36265;-57
2022/05/07 05:24:56;;;;;;;;;;;13.50;99.90;;;;;;5073137;27;36663;-57
2022/05/07 05:27:23;;;;;;;;;;;13.60;99.90;;;;;;5072298;27;39262;-57
2022/05/07 05:29:50;;;;;;;;;;;13.50;99.90;;;;;;5074827;27;35926;-57
2022/05/07 05:32:21;;;;;;;;;;;13.50;99.90;;;;;;5075947;27;36192;-57
2022/05/07 05:34:52;;;;;;;;;;;13.50;99.90;;;;;;5075351;27;38064;-57
2022/05/07 05:37:19;;;;;;;;;;;13.60;99.90;;;;;;5075220;27;38753;-57
2022/05/07 05:39:46;;;;;;;;;;;13.60;99.90;;;;;;5073486;27;39211;-57
2022/05/07 05:42:14;;;;;;;;;;;13.60;99.90;;;;;;5075993;27;36415;-61
2022/05/07 05:44:41;;;;;;;;;;;13.60;99.90;;;;;;5074120;27;37555;-61
2022/05/07 05:47:09;;;;;;;;;;;13.70;99.90;;;;;;5073302;27;39170;-62
2022/05/07 05:49:36;;;;;;;;;;;13.70;99.90;;;;;;5074788;27;38300;-57
2022/05/07 05:52:05;;;;;;;;;;;13.70;99.90;;;;;;5073410;27;35252;-57
2022/05/07 05:54:33;;;;;;;;;;;13.70;99.90;;;;;;5075175;27;37334;-57
2022/05/07 05:57:00;;;;;;;;;;;13.80;99.90;;;;;;5074662;27;39119;-57
2022/05/07 05:59:28;;;;;;;;;;;13.90;99.90;;;;;;5074444;27;37334;-57
2022/05/07 06:01:55;;;;;;;;;;;14.00;99.90;;;;;;5076523;27;35201;-57
2022/05/07 06:04:22;;;;;;;;;;;14.00;99.90;;;;;;5075412;27;37921;-57
2022/05/07 06:06:49;;;;;;;;;;;14.10;99.90;;;;;;5074785;27;36805;-57
2022/05/07 06:09:17;;;;;;;;;;;14.20;99.90;;;;;;5076064;27;38792;-57
2022/05/07 06:11:44;;;;;;;;;;;14.40;99.90;;;;;;5072116;27;36615;-57
2022/05/07 06:14:12;;;;;;;;;;;14.40;99.90;;;;;;5073481;27;37830;-57
2022/05/07 06:16:39;;;;;;;;;;;14.50;99.90;;;;;;5072872;27;38470;-57
2022/05/07 06:19:07;;;;;;;;;;;14.60;99.90;;;;;;5075198;27;37538;-57
2022/05/07 06:21:34;;;;;;;;;;;14.60;99.90;;;;;;5074211;27;36106;-57
2022/05/07 06:29:28;;;;;;;;;;;15.10;99.90;;;;;;5074973;27;38257;-57
2022/05/07 06:31:56;;;;;;;;;;;15.30;99.90;;;;;;5074308;27;36935;-57
2022/05/07 06:34:24;;;;;;;;;;;15.50;99.90;;;;;;5073029;27;37734;-57
2022/05/07 06:36:51;;;;;;;;;;;15.50;99.90;;;;;;5073150;27;36770;-57
2022/05/07 06:39:20;;;;;;;;;;;15.50;99.90;;;;;;5073656;27;37899;-56
2022/05/07 06:41:49;;;;;;;;;;;15.50;99.90;;;;;;5073471;27;36316;-56
2022/05/07 06:44:17;;;;;;;;;;;15.40;99.90;;;;;;5077286;27;36250;-59
2022/05/07 06:46:44;;;;;;;;;;;15.40;99.90;;;;;;5078861;27;38855;-56
2022/05/07 06:49:11;;;;;;;;;;;15.40;99.90;;;;;;5081469;27;35588;-58
2022/05/07 06:51:38;;;;;;;;;;;15.40;99.90;;;;;;5081316;27;36409;-57
2022/05/07 06:54:06;;;;;;;;;;;15.40;99.90;;;;;;5079331;27;38821;-57
2022/05/07 06:56:33;;;;;;;;;;;15.40;99.90;;;;;;5076691;27;38814;-58
2022/05/07 06:59:02;;;;;;;;;;;15.40;99.90;;;;;;5079930;27;38177;-57
2022/05/07 07:01:29;;;;;;;;;;;15.30;99.90;;;;;;5080469;27;36843;-57
2022/05/07 07:03:56;;;;;;;;;;;15.30;99.90;;;;;;5078006;27;39072;-58
2022/05/07 07:06:23;;;;;;;;;;;15.30;99.90;;;;;;5078946;27;41116;-58
2022/05/07 07:08:52;;;;;;;;;;;15.40;99.90;;;;;;5079438;27;38323;-58
2022/05/07 07:11:20;;;;;;;;;;;15.50;99.90;;;;;;5075627;27;36977;-59
2022/05/07 07:13:47;;;;;;;;;;;15.50;99.90;;;;;;5073477;27;38553;-59
2022/05/07 07:16:16;;;;;;;;;;;15.60;99.90;;;;;;5078678;27;38531;-59
2022/05/07 07:18:43;;;;;;;;;;;15.60;99.90;;;;;;5077866;27;38543;-58
2022/05/07 07:21:11;;;;;;;;;;;15.70;99.90;;;;;;5077587;27;38827;-59
2022/05/07 07:23:38;;;;;;;;;;;15.80;99.90;;;;;;5077921;27;38217;-59
2022/05/07 07:26:05;;;;;;;;;;;15.90;99.90;;;;;;5078677;27;38669;-59
2022/05/07 07:28:32;;;;;;;;;;;16.00;99.60;;;;;;5081818;27;36946;-58
2022/05/07 07:30:59;;;;;;;;;;;16.00;99.30;;;;;;5083095;27;35832;-59
2022/05/07 07:33:28;;;;;;;;;;;16.00;99.10;;;;;;5083290;27;37883;-58
2022/05/07 07:35:55;;;;;;;;;;;16.00;99.40;;;;;;5081717;27;37805;-58
2022/05/07 07:38:22;;;;;;;;;;;16.10;99.60;;;;;;5081579;27;41337;-55
2022/05/07 07:40:51;;;;;;;;;;;16.20;99.30;;;;;;5076356;27;36549;-56
2022/05/07 07:43:18;;;;;;;;;;;16.20;99.10;;;;;;5077185;27;38179;-55
2022/05/07 07:48:31;;;;;;;;;;;16.40;99.20;;;;;;5075769;27;38361;-55
2022/05/07 07:50:58;;;;;;;;;;;16.40;98.40;;;;;;5077313;27;37196;-56
2022/05/07 07:53:26;;;;;;;;;;;16.40;99.10;;;;;;5076750;27;36346;-55
2022/05/07 07:55:53;;;;;;;;;;;16.50;98.90;;;;;;5073361;27;37959;-55
2022/05/07 07:58:20;;;;;;;;;;;16.50;98.70;;;;;;5071045;27;36034;-56
2022/05/07 08:00:47;;;;;;;;;;;16.50;98.90;;;;;;5074142;27;36865;-55
2022/05/07 08:03:15;;;;;;;;;;;16.50;98.50;;;;;;5074280;27;37528;-55
2022/05/07 08:05:44;;;;;;;;;;;16.50;98.90;;;;;;5075022;27;36786;-55
2022/05/07 08:13:42;;;;;;;;;;;16.50;99.70;;;;;;5074631;27;37597;-55
2022/05/07 08:16:10;;;;;;;;;;;16.60;99.60;;;;;;5077573;27;37112;-55
2022/05/07 08:18:37;;;;;;;;;;;16.50;99.90;;;;;;5077403;27;37329;-55
2022/05/07 08:21:06;;;;;;;;;;;16.50;99.70;;;;;;5076390;27;36181;-55
2022/05/07 08:23:34;;;;;;;;;;;16.40;99.90;;;;;;5076257;27;37420;-55
2022/05/07 08:26:02;;;;;;;;;;;16.40;99.90;;;;;;5076348;27;38810;-55
2022/05/07 08:28:29;;;;;;;;;;;16.40;99.90;;;;;;5076414;27;37039;-55
2022/05/07 08:30:57;;;;;;;;;;;16.40;99.90;;;;;;5078172;27;38870;-55
2022/05/07 08:33:24;;;;;;;;;;;16.40;99.90;;;;;;5077423;27;38322;-55
2022/05/07 08:35:51;;;;;;;;;;;16.40;99.90;;;;;;5076542;27;38000;-55
2022/05/07 08:38:20;;;;;;;;;;;16.40;99.90;;;;;;5073630;27;36847;-56
2022/05/07 08:40:47;;;;;;;;;;;16.30;99.90;;;;;;5075872;27;36344;-55
2022/05/07 08:43:16;;;;;;;;;;;16.40;99.90;;;;;;5076545;27;36556;-55
2022/05/07 08:45:44;;;;;;;;;;;16.40;99.90;;;;;;5076988;27;38193;-55
2022/05/07 08:48:11;;;;;;;;;;;16.30;99.90;;;;;;5076631;27;34401;-55
2022/05/07 08:50:39;;;;;;;;;;;16.30;99.90;;;;;;5079834;27;36524;-55
2022/05/07 08:53:06;;;;;;;;;;;16.20;99.90;;;;;;5079620;27;39187;-55
2022/05/07 08:55:35;;;;;;;;;;;16.10;99.90;;;;;;5079786;27;37530;-55
2022/05/07 08:58:02;;;;;;;;;;;16.10;99.90;;;;;;5079488;27;36033;-55
2022/05/07 09:00:29;;;;;;;;;;;16.10;99.90;;;;;;5078807;27;36608;-55
2022/05/07 09:02:57;;;;;;;;;;;16.00;99.90;;;;;;5079394;27;37519;-55
2022/05/07 09:05:32;;;;;;;;;;;16.00;99.90;;;;;;5080431;28;38543;-55
2022/05/07 09:07:59;;;;;;;;;;;16.00;99.90;;;;;;5079902;27;40101;-55
2022/05/07 09:10:27;;;;;;;;;;;16.00;99.90;;;;;;5079693;27;36858;-55
2022/05/07 09:12:59;;;;;;;;;;;16.00;99.90;;;;;;5079801;27;37665;-55
2022/05/07 09:15:26;;;;;;;;;;;16.00;99.90;;;;;;5078396;27;38488;-55
2022/05/07 09:17:53;;;;;;;;;;;16.00;99.90;;;;;;5079665;28;37210;-55
2022/05/07 09:20:21;;;;;;;;;;;16.00;99.90;;;;;;5077633;28;38961;-55
2022/05/07 09:22:49;;;;;;;;;;;16.00;99.90;;;;;;5078730;27;37890;-56
2022/05/07 09:25:20;;;;;;;;;;;16.00;99.90;;;;;;5079416;27;37694;-55
2022/05/07 09:27:47;;;;;;;;;;;16.00;99.90;;;;;;5079159;27;38609;-55
2022/05/07 09:30:21;;;;;;;;;;;16.10;99.90;;;;;;5079003;28;37765;-55
2022/05/07 09:32:50;;;;;;;;;;;16.10;99.90;;;;;;5077691;27;37892;-55
2022/05/07 09:38:02;;;;;;;;;;;16.20;99.90;;;;;;5078842;28;39938;-56
2022/05/07 09:40:30;;;;;;;;;;;16.30;99.90;;;;;;5078425;27;36019;-55
2022/05/07 09:42:58;;;;;;;;;;;16.40;99.90;;;;;;5074949;27;37808;-56
2022/05/07 09:45:27;;;;;;;;;;;16.50;99.90;;;;;;5076378;27;36683;-56
2022/05/07 09:47:55;;;;;;;;;;;16.50;99.90;;;;;;5077938;27;37761;-56
2022/05/07 09:50:24;;;;;;;;;;;16.60;99.90;;;;;;5077606;28;36352;-56
2022/05/07 09:58:24;;;;;;;;;;;16.80;99.90;;;;;;5060154;27;36631;-57
2022/05/07 10:01:04;;;;;;;;;;;16.80;99.90;;;;;;5074187;27;37830;-57
2022/05/07 10:03:35;;;;;;;;;;;16.90;99.90;;;;;;5074748;27;37910;-56
2022/05/07 10:06:17;;;;;;;;;;;16.90;99.90;;;;;;5075705;27;37961;-56
2022/05/07 10:08:53;;;;;;;;;;;17.00;99.90;;;;;;5072833;28;37706;-56
2022/05/07 10:11:21;;;;;;;;;;;17.00;99.90;;;;;;5074230;27;36519;-56
2022/05/07 10:13:52;;;;;;;;;;;17.00;99.80;;;;;;5073655;27;36576;-56
2022/05/07 10:16:22;;;;;;;;;;;17.00;99.80;;;;;;5075502;27;38231;-56
2022/05/07 10:18:50;;;;;;;;;;;17.00;99.80;;;;;;5074090;27;39574;-56
2022/05/07 10:21:17;;;;;;;;;;;16.90;99.90;;;;;;5073514;27;35279;-56
2022/05/07 10:23:52;;;;;;;;;;;16.90;99.90;;;;;;5073879;27;36264;-56
2022/05/07 10:26:19;;;;;;;;;;;16.90;99.90;;;;;;5078790;28;36866;-56
2022/05/07 10:28:47;;;;;;;;;;;16.90;99.90;;;;;;5077527;27;39034;-56
2022/05/07 10:31:18;;;;;;;;;;;16.90;99.90;;;;;;5078451;27;35139;-56
2022/05/07 10:33:50;;;;;;;;;;;16.80;99.70;;;;;;5077364;28;39491;-57
2022/05/07 10:36:17;;;;;;;;;;;16.70;99.60;;;;;;5078218;28;38486;-56
2022/05/07 10:38:46;;;;;;;;;;;16.70;99.90;;;;;;5077623;28;37103;-56
2022/05/07 10:41:20;;;;;;;;;;;16.60;99.90;;;;;;5077028;28;37058;-56
2022/05/07 10:43:48;;;;;;;;;;;16.60;99.90;;;;;;5077630;27;39214;-56
2022/05/07 10:46:16;;;;;;;;;;;16.50;99.90;;;;;;5077151;27;39726;-56
2022/05/07 10:48:45;;;;;;;;;;;16.40;99.90;;;;;;5075327;27;36856;-56
2022/05/07 10:51:27;;;;;;;;;;;16.40;99.90;;;;;;5074121;27;36351;-56
2022/05/07 10:53:56;;;;;;;;;;;16.40;99.90;;;;;;5075957;27;37864;-56
2022/05/07 10:56:24;;;;;;;;;;;16.40;99.90;;;;;;5075883;27;38133;-56
2022/05/07 10:58:52;;;;;;;;;;;16.40;99.90;;;;;;5076534;27;36198;-56
2022/05/07 11:01:22;;;;;;;;;;;16.40;99.90;;;;;;5075571;27;35094;-56
2022/05/07 11:03:49;;;;;;;;;;;16.50;99.90;;;;;;5073755;27;39190;-56
2022/05/07 11:06:16;;;;;;;;;;;16.50;99.90;;;;;;5075849;27;39279;-56
2022/05/07 11:08:53;;;;;;;;;;;16.40;99.90;;;;;;5075290;27;37580;-56
2022/05/07 11:11:20;;;;;;;;;;;16.40;99.90;;;;;;5077753;27;36993;-56
2022/05/07 11:13:48;;;;;;;;;;;16.40;99.90;;;;;;5077878;27;37037;-56
2022/05/07 11:16:16;;;;;;;;;;;16.40;99.90;;;;;;5076213;27;38974;-56
2022/05/07 11:18:45;;;;;;;;;;;16.30;99.90;;;;;;5078337;27;37357;-55
2022/05/07 11:21:13;;;;;;;;;;;16.30;99.90;;;;;;5076935;27;36456;-56
2022/05/07 11:23:42;;;;;;;;;;;16.30;99.90;;;;;;5077894;27;38347;-56
2022/05/07 11:26:15;;;;;;;;;;;16.30;99.90;;;;;;5077744;27;38149;-56
2022/05/07 11:28:44;;;;;;;;;;;16.30;99.90;;;;;;5077334;27;37931;-56
2022/05/07 11:31:11;;;;;;;;;;;16.30;99.90;;;;;;5077386;27;36325;-56
2022/05/07 11:33:38;;;;;;;;;;;16.30;99.90;;;;;;5078299;27;40610;-56
2022/05/07 11:36:07;;;;;;;;;;;16.30;99.90;;;;;;5078391;27;38724;-56
2022/05/07 11:38:34;;;;;;;;;;;16.40;99.90;;;;;;5077213;27;37881;-56
2022/05/07 11:41:11;;;;;;;;;;;16.50;99.90;;;;;;5078113;27;35075;-56
2022/05/07 11:46:24;;;;;;;;;;;16.70;99.90;;;;;;5076339;27;39225;-56
2022/05/07 11:48:51;;;;;;;;;;;16.80;99.90;;;;;;5078743;27;35942;-56
2022/05/07 11:51:25;;;;;;;;;;;16.70;99.90;;;;;;5077590;27;36482;-56
2022/05/07 11:53:52;;;;;;;;;;;16.70;99.90;;;;;;5077093;27;38039;-56
2022/05/07 11:56:20;;;;;;;;;;;16.70;99.90;;;;;;5077823;27;36693;-56
2022/05/07 11:58:49;;;;;;;;;;;16.70;99.90;;;;;;5077348;27;37665;-56
2022/05/07 12:01:23;;;;;;;;;;;16.70;99.90;;;;;;5076637;27;35210;-56
2022/05/07 12:03:50;;;;;;;;;;;16.70;99.90;;;;;;5078121;27;38035;-53
2022/05/07 12:06:24;;;;;;;;;;;16.70;99.90;;;;;;5076543;27;38278;-55
2022/05/07 12:08:52;;;;;;;;;;;16.60;99.80;;;;;;5077136;27;37005;-55
2022/05/07 12:11:20;;;;;;;;;;;16.50;99.70;;;;;;5080062;27;36877;-55
2022/05/07 12:13:48;;;;;;;;;;;16.50;99.80;;;;;;5079523;27;37924;-55
2022/05/07 12:19:00;;;;;;;;;;;16.60;99.90;;;;;;5080157;27;39586;-55
2022/05/07 12:29:52;;;;;;;;;;;16.60;99.20;;;;;;5080353;27;38405;-55
2022/05/07 12:32:20;;;;;;;;;;;16.70;99.20;;;;;;5079991;27;37437;-55
2022/05/07 12:34:47;;;;;;;;;;;16.60;99.30;;;;;;5079312;27;39045;-55
2022/05/07 12:37:15;;;;;;;;;;;16.70;98.90;;;;;;5080774;27;37657;-55
2022/05/07 12:39:42;;;;;;;;;;;16.70;99.00;;;;;;5080454;27;38166;-55
2022/05/07 12:42:10;;;;;;;;;;;16.70;99.30;;;;;;5080959;27;35913;-55
2022/05/07 12:44:37;;;;;;;;;;;16.80;99.30;;;;;;5079784;27;38309;-56
2022/05/07 12:47:06;;;;;;;;;;;16.90;99.40;;;;;;5078832;27;38006;-55
2022/05/07 12:49:34;;;;;;;;;;;17.00;99.40;;;;;;5080899;27;35892;-55
2022/05/07 12:52:03;;;;;;;;;;;17.00;99.50;;;;;;5080292;27;37681;-55
2022/05/07 12:54:30;;;;;;;;;;;17.00;98.80;;;;;;5080153;27;37421;-56
2022/05/07 12:56:58;;;;;;;;;;;16.90;99.00;;;;;;5080364;27;37882;-55
2022/05/07 12:59:25;;;;;;;;;;;16.80;99.20;;;;;;5080150;27;37841;-54
2022/05/07 13:01:52;;;;;;;;;;;16.80;99.70;;;;;;5080339;27;37856;-55
2022/05/07 13:04:24;;;;;;;;;;;16.80;99.00;;;;;;5080201;27;37579;-55
2022/05/07 13:06:51;;;;;;;;;;;16.80;99.40;;;;;;5078354;27;38508;-55
2022/05/07 13:09:18;;;;;;;;;;;16.90;99.90;;;;;;5079651;27;39007;-55
2022/05/07 13:11:46;;;;;;;;;;;16.90;99.00;;;;;;5081075;27;36493;-55
2022/05/07 13:14:13;;;;;;;;;;;16.90;99.20;;;;;;5079571;27;37895;-55
2022/05/07 13:16:40;;;;;;;;;;;17.00;99.50;;;;;;5078461;27;38327;-54
2022/05/07 13:19:07;;;;;;;;;;;17.00;99.00;;;;;;5079297;27;37856;-55
2022/05/07 13:21:36;;;;;;;;;;;17.00;98.80;;;;;;5078201;27;36352;-55
2022/05/07 13:24:04;;;;;;;;;;;17.00;98.30;;;;;;5079835;27;36847;-55
2022/05/07 13:26:31;;;;;;;;;;;17.10;99.60;;;;;;5078560;27;39126;-55
2022/05/07 13:28:58;;;;;;;;;;;17.20;99.90;;;;;;5078719;27;37100;-55
2022/05/07 13:31:25;;;;;;;;;;;17.30;99.30;;;;;;5076619;27;36819;-55
2022/05/07 13:33:52;;;;;;;;;;;17.40;98.90;;;;;;5077258;27;37042;-55
2022/05/07 13:36:21;;;;;;;;;;;17.40;98.90;;;;;;5077607;27;39861;-56
2022/05/07 13:38:49;;;;;;;;;;;17.30;98.20;;;;;;5077994;27;37547;-55
2022/05/07 13:41:20;;;;;;;;;;;17.30;98.50;;;;;;5078904;27;36260;-55
2022/05/07 13:43:47;;;;;;;;;;;17.30;98.40;;;;;;5079279;27;37104;-55
2022/05/07 13:46:15;;;;;;;;;;;17.20;98.60;;;;;;5078613;27;38149;-55
2022/05/07 13:48:44;;;;;;;;;;;17.10;97.90;;;;;;5078914;27;38752;-55
2022/05/07 13:51:11;;;;;;;;;;;17.00;98.00;;;;;;5077665;27;37134;-55
2022/05/07 13:53:38;;;;;;;;;;;16.90;98.50;;;;;;5078828;27;38870;-55
2022/05/07 13:56:07;;;;;;;;;;;16.80;99.30;;;;;;5077903;27;39288;-55
2022/05/07 13:58:34;;;;;;;;;;;16.80;99.60;;;;;;5077944;27;39014;-55
2022/05/07 14:01:01;;;;;;;;;;;16.80;99.90;;;;;;5079540;27;40022;-55
2022/05/07 14:03:28;;;;;;;;;;;16.80;99.90;;;;;;5079726;27;37694;-55
2022/05/07 14:05:55;;;;;;;;;;;16.80;99.90;;;;;;5076934;27;37646;-55
2022/05/07 14:08:23;;;;;;;;;;;16.70;99.80;;;;;;5077967;27;37091;-55
2022/05/07 14:10:50;;;;;;;;;;;16.70;99.80;;;;;;5078090;27;36588;-55
2022/05/07 14:13:19;;;;;;;;;;;16.70;99.80;;;;;;5078400;27;38618;-57
2022/05/07 14:15:46;;;;;;;;;;;16.70;99.70;;;;;;5079325;27;37803;-55
2022/05/07 14:18:13;;;;;;;;;;;16.70;99.90;;;;;;5078563;27;37095;-55
2022/05/07 14:20:40;;;;;;;;;;;16.60;99.70;;;;;;5077318;27;37944;-54
2022/05/07 14:23:12;;;;;;;;;;;16.50;99.10;;;;;;5077892;27;37861;-55
2022/05/07 14:25:39;;;;;;;;;;;16.50;99.60;;;;;;5078662;27;38075;-55
2022/05/07 14:28:06;;;;;;;;;;;16.40;99.30;;;;;;5078547;27;38197;-55
2022/05/07 14:30:35;;;;;;;;;;;16.40;99.70;;;;;;5078686;27;36125;-55
2022/05/07 14:33:05;;;;;;;;;;;16.40;99.10;;;;;;5079139;27;37981;-55
2022/05/07 14:35:32;;;;;;;;;;;16.40;99.10;;;;;;5077534;27;40440;-55
2022/05/07 14:37:59;;;;;;;;;;;16.30;99.10;;;;;;5078004;27;36648;-55
2022/05/07 14:40:31;;;;;;;;;;;16.20;99.10;;;;;;5079053;27;36169;-55
2022/05/07 14:42:59;;;;;;;;;;;16.20;99.20;;;;;;5078317;27;37488;-55
2022/05/07 14:45:27;;;;;;;;;;;16.00;99.10;;;;;;5078870;27;38126;-55
2022/05/07 14:47:55;;;;;;;;;;;16.00;99.10;;;;;;5078411;27;36218;-55
2022/05/07 14:50:23;;;;;;;;;;;16.00;99.10;;;;;;5076467;27;37521;-55
2022/05/07 14:52:50;;;;;;;;;;;16.00;99.00;;;;;;5078675;27;38043;-55
2022/05/07 14:55:17;;;;;;;;;;;16.00;99.90;;;;;;5079498;27;38669;-55
2022/05/07 14:57:45;;;;;;;;;;;16.00;99.90;;;;;;5077795;27;36959;-55
2022/05/07 15:00:12;;;;;;;;;;;16.10;99.50;;;;;;5078074;27;37085;-55
2022/05/07 15:02:42;;;;;;;;;;;16.00;99.70;;;;;;5077576;27;37898;-55
2022/05/07 15:05:13;;;;;;;;;;;16.00;99.20;;;;;;5078140;27;38336;-55
2022/05/07 15:07:40;;;;;;;;;;;16.00;98.50;;;;;;5077317;27;37898;-55